Latest Weather Observations for Thredbo Top Station

IDN60901

Issued at 4:25 pm EDT Monday 24 November 2014 (issued every 10 minutes, with the page automatically refreshed every 10 minutes)

About weather observations | Map of Canberra area stations | Latest observations for Canberra area | Other Formats
Station Details ID: 071032 Name: THREDBO AWS Lat: -36.49 Lon: 148.29 Height: 1957.0 m
Data from the previous 72 hours. | See also: Recent months at Thredbo Top Station
Date/Time
EDT
Tmp

°C
App
Tmp
°C
Dew
Point
°C
Rel
Hum
%
Delta-T

°C
Wind Press
QNH
hPa
Press
MSL
hPa
Rain
since
9 am
mm
Dir
 
Spd
km/h
Gust
km/h
Spd
kts
Gust
kts
24/04:00pm 9.7 1.3 9.6 99 0.1 NW 44 67 24 36 1012.7 1011.4 9.4
24/03:30pm 9.9 -0.9 9.8 99 0.1 NNW 57 78 31 42 1013.3 1012.0 9.4
24/03:00pm 10.4 -0.1 10.2 99 0.1 NNW 56 74 30 40 1013.4 1012.1 9.2
24/02:30pm 10.1 -0.5 9.9 99 0.1 NNW 56 74 30 40 1014.8 1013.5 8.6
24/02:29pm 10.1 -0.5 9.9 99 0.1 NNW 56 74 30 40 1014.7 1013.4 8.4
24/02:27pm 10.2 -1.3 10.0 99 0.1 NNW 61 74 33 40 1014.8 1013.5 8.4
24/02:00pm 10.4 2.7 10.2 99 0.1 NW 41 59 22 32 1015.1 1013.9 7.8
24/01:30pm 10.5 1.9 10.3 99 0.1 NNW 46 65 25 35 1015.0 1013.7 5.8
24/01:00pm 10.9 4.1 10.7 99 0.1 NW 37 57 20 31 1015.1 1013.9 2.6
24/12:30pm 11.0 2.9 10.8 99 0.1 NW 44 63 24 34 1014.9 1013.6 0.0
24/12:00pm 11.5 4.0 10.7 95 0.4 NW 41 59 22 32 1015.6 1014.3 0.0
24/11:32am 11.5 3.6 10.9 96 0.3 NNW 43 63 23 34 1016.7 1015.5 0.0
24/11:30am 11.3 3.5 11.1 99 0.1 NNW 43 56 23 30 1017.0 1015.7 0.0
24/11:00am 11.6 4.7 10.3 92 0.7 NW 37 63 20 34 1018.1 1016.9 0.0
24/10:35am 11.1 3.4 10.0 93 0.6 NNW 41 59 22 32 1018.4 1017.3 0.0
24/10:30am 11.0 2.9 9.9 93 0.6 NNW 43 59 23 32 1018.7 1017.5 0.0
24/10:02am 11.4 2.1 9.1 86 1.2 NNW 48 67 26 36 1019.0 1017.9 0.0
24/10:00am 11.5 1.8 9.1 85 1.3 NNW 50 67 27 36 1018.9 1017.7 0.0
24/09:30am 11.5 0.5 9.2 86 1.2 NNW 57 78 31 42 1018.7 1017.5 0.0
24/09:13am 12.0 0.5 10.2 89 1.0 NNW 61 85 33 46 1018.8 1017.6 0.0
24/09:00am 11.1 -1.0 9.5 90 0.9 NNW 63 78 34 42 1018.6 1017.4 0.6
24/08:32am 11.5 -1.2 9.8 89 0.9 NNW 67 85 36 46 1018.4 1017.3 0.6
24/08:30am 11.4 -1.3 9.8 90 0.9 NNW 67 82 36 44 1018.4 1017.3 0.6
24/08:00am 11.2 -2.5 9.6 90 0.9 NNW 72 91 39 49 1018.3 1017.2 0.6
24/07:44am 11.2 -2.9 9.5 89 0.9 NNW 74 93 40 50 1018.1 1016.9 0.6
24/07:30am 11.2 -3.3 9.6 90 0.9 NNW 76 93 41 50 1018.1 1016.9 0.6
24/07:00am 11.7 -2.6 8.7 82 1.6 NNW 74 93 40 50 1017.9 1016.7 0.6
24/06:36am 11.8 -1.7 6.7 71 2.6 NNW 67 85 36 46 1017.9 1016.7 0.6
24/06:30am 11.1 -1.9 7.2 77 2.0 NNW 65 78 35 42 1017.8 1016.6 0.6
24/06:22am 11.2 -0.3 7.1 76 2.1 NNW 57 78 31 42 1017.6 1016.5 0.6
24/06:00am 11.3 -0.6 6.8 74 2.3 NNW 59 70 32 38 1017.8 1016.6 0.6
24/05:30am 11.8 0.9 5.4 65 3.2 NNW 52 63 28 34 1017.1 1015.9 0.6
24/05:00am 10.9 0.6 6.6 75 2.2 N 50 63 27 34 1017.2 1016.0 0.6
24/04:30am 10.6 1.7 7.7 82 1.5 NNW 44 56 24 30 1017.9 1016.7 0.6
24/04:25am 10.4 1.6 7.3 81 1.6 NNW 43 54 23 29 1017.9 1016.7 0.6
24/04:00am 10.9 5.6 7.0 77 2.0 NW 24 35 13 19 1018.2 1017.0 0.6
24/03:30am 11.0 7.1 7.3 78 1.9 W 17 24 9 13 1018.8 1017.6 0.4
24/03:00am 13.2 8.4 4.9 57 4.1 W 19 32 10 17 1018.8 1017.6 0.0
24/02:30am 13.3 8.4 4.2 54 4.5 WNW 19 28 10 15 1018.7 1017.5 0.0
24/02:00am 13.1 6.8 4.0 54 4.5 NNW 26 33 14 18 1019.0 1017.9 0.0
24/01:30am 12.8 7.5 5.0 59 3.9 WNW 22 30 12 16 1019.2 1018.1 0.0
24/01:00am 13.4 8.5 5.3 58 4.1 NW 20 33 11 18 1020.3 1019.2 0.0
24/12:30am 14.1 8.3 6.2 59 4.1 NW 26 48 14 26 1020.2 1019.0 0.0
24/12:23am 14.2 7.9 5.8 57 4.3 NW 28 48 15 26 1020.3 1019.2 0.0
24/12:00am 14.2 7.6 7.9 66 3.4 NNW 32 41 17 22 1020.3 1019.2 0.0
 
Date/Time
EDT
Tmp

°C
App
Tmp
°C
Dew
Point
°C
Rel
Hum
%
Delta-T

°C
Wind Press
QNH
hPa
Press
MSL
hPa
Rain
since
9 am
mm
Dir
 
Spd
km/h
Gust
km/h
Spd
kts
Gust
kts
23/11:30pm 13.2 6.6 8.7 74 2.4 NNW 33 44 18 24 1020.2 1019.0 0.0
23/11:00pm 13.7 7.7 8.7 72 2.7 NW 30 39 16 21 1019.8 1018.7 0.0
23/10:30pm 14.1 7.6 8.3 68 3.1 NW 32 39 17 21 1019.2 1018.1 0.0
23/10:00pm 14.3 8.9 7.8 65 3.5 NW 26 41 14 22 1019.5 1018.3 0.0
23/09:30pm 15.3 9.4 7.6 60 4.1 NW 28 39 15 21 1019.1 1018.0 0.0
23/09:00pm 15.8 9.1 7.3 57 4.5 NNW 32 39 17 21 1018.8 1017.6 0.0
23/08:30pm 15.7 9.3 7.0 56 4.6 NNW 30 43 16 23 1018.3 1017.2 0.0
23/08:00pm 16.0 9.9 6.7 54 4.9 NW 28 41 15 22 1018.0 1016.8 0.0
23/07:38pm 16.2 9.6 6.1 51 5.3 NW 30 52 16 28 1017.9 1016.7 0.0
23/07:30pm 16.6 9.6 5.9 49 5.6 NW 32 44 17 24 1017.6 1016.5 0.0
23/07:11pm 17.3 10.0 5.6 46 6.1 NW 33 52 18 28 1017.5 1016.3 0.0
23/07:00pm 17.5 9.0 5.1 44 6.4 NW 39 52 21 28 1017.4 1016.2 0.0
23/06:30pm 18.2 10.9 4.7 41 7.0 WNW 32 52 17 28 1016.8 1015.6 0.0
23/06:05pm 18.8 11.6 4.9 40 7.2 WNW 32 50 17 27 1016.6 1015.4 0.0
23/06:00pm 18.2 10.7 4.4 40 7.1 WNW 33 48 18 26 1016.5 1015.3 0.0
23/05:30pm 18.7 9.5 3.7 37 7.6 WNW 41 76 22 41 1016.6 1015.4 0.0
23/05:00pm 19.7 10.1 4.2 36 8.0 WNW 44 67 24 36 1016.4 1015.2 0.0
23/04:30pm 20.1 10.1 4.2 35 8.2 WNW 46 67 25 36 1016.6 1015.4 0.0
23/04:05pm 20.4 11.4 6.4 40 7.5 NW 43 67 23 36 1016.5 1015.3 0.0
23/04:00pm 20.5 12.4 6.8 41 7.4 NW 39 56 21 30 1016.5 1015.3 0.0
23/03:30pm 20.5 12.8 8.5 46 6.7 NW 39 59 21 32 1016.5 1015.3 0.0
23/03:00pm 20.0 11.5 8.4 47 6.5 NW 43 69 23 37 1017.0 1015.7 0.0
23/02:30pm 19.5 11.0 8.5 49 6.1 NW 43 67 23 36 1016.8 1015.6 0.0
23/02:00pm 19.4 10.7 8.4 49 6.1 NNW 44 67 24 36 1017.0 1015.7 0.0
23/01:32pm 19.2 7.9 7.0 45 6.6 NNW 56 74 30 40 1017.3 1016.1 0.0
23/01:30pm 18.9 7.3 6.7 45 6.6 NNW 57 74 31 40 1017.4 1016.2 0.0
23/01:08pm 18.8 6.7 6.3 44 6.7 NNW 59 78 32 42 1017.6 1016.5 0.0
23/01:00pm 18.9 6.9 6.4 44 6.7 NNW 59 74 32 40 1017.4 1016.2 0.0
23/12:39pm 19.0 8.1 7.1 46 6.4 NNW 54 72 29 39 1017.5 1016.3 0.0
23/12:30pm 18.2 6.6 6.7 47 6.2 NNW 57 72 31 39 1017.5 1016.3 0.0
23/12:00pm 18.3 7.0 7.1 48 6.0 NNW 56 74 30 40 1017.5 1016.3 0.0
23/11:30am 18.4 7.9 7.5 49 5.9 NNW 52 76 28 41 1017.5 1016.3 0.0
23/11:00am 17.4 6.5 7.2 51 5.5 NNW 54 72 29 39 1017.4 1016.2 0.0
23/10:30am 16.8 6.6 6.9 52 5.3 NNW 50 70 27 38 1017.6 1016.5 0.0
23/10:00am 16.6 6.3 6.4 51 5.4 NNW 50 72 27 39 1017.8 1016.6 0.0
23/09:30am 16.6 6.3 6.4 51 5.4 NNW 50 72 27 39 1017.2 1016.0 0.0
23/09:02am 16.7 7.0 5.9 49 5.6 NNW 46 65 25 35 1017.0 1015.7 0.0
23/09:00am 17.0 7.5 6.5 50 5.6 NNW 46 63 25 34 1016.7 1015.5 0.4
23/08:30am 16.1 7.1 6.3 52 5.1 NNW 43 56 23 30 1016.5 1015.3 0.4
23/08:00am 15.1 6.0 6.9 58 4.3 NNW 44 56 24 30 1016.4 1015.2 0.4
23/07:30am 12.4 6.6 8.1 75 2.3 NNW 28 50 15 27 1016.7 1015.5 0.4
23/07:24am 12.8 5.3 7.9 72 2.6 NNW 37 56 20 30 1016.8 1015.6 0.2
23/07:00am 13.8 4.9 6.9 63 3.6 NNW 43 57 23 31 1016.2 1014.9 0.0
23/06:30am 12.3 4.2 7.0 70 2.8 NNW 39 52 21 28 1015.8 1014.6 0.0
23/06:00am 12.0 3.1 6.9 71 2.6 NNW 43 61 23 33 1015.9 1014.7 0.0
23/05:55am 12.0 3.1 6.9 71 2.6 NNW 43 61 23 33 1016.0 1014.8 0.0
23/05:30am 11.7 1.1 7.0 73 2.4 NNW 52 67 28 36 1016.3 1015.0 0.0
23/05:14am 12.2 3.6 6.5 68 2.9 NNW 41 65 22 35 1016.2 1014.9 0.0
23/05:00am 12.1 2.2 6.8 70 2.7 NNW 48 59 26 32 1016.7 1015.5 0.0
23/04:34am 12.9 5.4 6.3 64 3.4 NNW 35 56 19 30 1016.3 1015.0 0.0
23/04:30am 12.8 5.3 6.2 64 3.4 NNW 35 48 19 26 1016.2 1014.9 0.0
23/04:12am 12.5 6.0 6.5 67 3.1 NW 30 48 16 26 1015.8 1014.6 0.0
23/04:00am 11.5 6.7 7.2 75 2.2 NW 22 30 12 16 1015.8 1014.6 0.0
23/03:30am 11.1 7.2 7.0 76 2.1 WNW 17 26 9 14 1015.7 1014.5 0.0
23/03:00am 10.5 6.9 6.6 77 2.0 NW 15 24 8 13 1015.5 1014.2 0.0
23/02:30am 10.4 6.4 6.5 77 2.0 WNW 17 22 9 12 1015.8 1014.6 0.0
23/02:00am 10.4 5.8 6.4 76 2.0 WNW 20 30 11 16 1016.5 1015.3 0.0
23/01:30am 10.7 5.7 6.5 75 2.1 W 22 32 12 17 1016.2 1014.9 0.0
23/01:00am 10.7 5.8 6.8 77 2.0 W 22 37 12 20 1016.6 1015.4 0.0
23/12:31am 11.5 4.1 6.8 73 2.4 W 35 54 19 29 1016.6 1015.4 0.0
23/12:30am 11.5 3.7 6.6 72 2.5 W 37 54 20 29 1016.7 1015.5 0.0
23/12:00am 10.8 3.8 5.8 71 2.5 W 32 52 17 28 1017.5 1016.3 0.0
 
Date/Time
EDT
Tmp

°C
App
Tmp
°C
Dew
Point
°C
Rel
Hum
%
Delta-T

°C
Wind Press
QNH
hPa
Press
MSL
hPa
Rain
since
9 am
mm
Dir
 
Spd
km/h
Gust
km/h
Spd
kts
Gust
kts
22/11:30pm 12.1 3.5 4.8 61 3.6 WNW 39 57 21 31 1017.3 1016.1 0.0
22/11:18pm 12.0 3.7 4.2 59 3.8 WNW 37 46 20 25 1017.8 1016.6 0.0
22/11:06pm 13.0 0.9 4.2 55 4.3 WNW 57 80 31 43 1017.3 1016.1 0.0
22/11:00pm 12.9 1.2 3.6 53 4.5 WNW 54 69 29 37 1017.4 1016.2 0.0
22/10:30pm 13.1 3.1 2.4 48 5.1 NW 44 63 24 34 1017.6 1016.5 0.0
22/10:00pm 13.3 3.5 2.5 48 5.1 NW 43 61 23 33 1017.3 1016.1 0.0
22/09:38pm 13.8 3.7 1.5 43 5.8 NW 44 67 24 36 1017.2 1016.0 0.0
22/09:30pm 13.4 3.4 2.0 46 5.4 NW 44 59 24 32 1017.1 1015.9 0.0
22/09:25pm 13.4 4.0 2.3 47 5.3 NW 41 59 22 32 1017.2 1016.0 0.0
22/09:15pm 13.4 4.4 2.3 47 5.3 NW 39 48 21 26 1017.2 1016.0 0.0
22/09:04pm 13.6 1.2 2.5 47 5.3 NNW 57 76 31 41 1017.0 1015.7 0.0
22/09:00pm 13.5 0.7 2.7 48 5.2 NNW 59 76 32 41 1016.8 1015.6 0.0
22/08:37pm 13.4 2.0 2.6 48 5.2 NNW 52 70 28 38 1016.3 1015.0 0.0
22/08:30pm 13.1 2.4 2.6 49 5.0 NNW 48 63 26 34 1016.3 1015.0 0.0
22/08:00pm 13.4 3.7 2.6 48 5.2 NNW 43 57 23 31 1016.3 1015.0 0.0
22/07:30pm 13.7 2.6 2.6 47 5.3 NNW 50 65 27 35 1016.3 1015.0 0.0
22/07:00pm 13.8 4.1 2.7 47 5.3 NNW 43 52 23 28 1016.2 1014.9 0.0
22/06:30pm 13.8 6.3 3.3 49 5.1 NW 32 44 17 24 1015.9 1014.7 0.0
22/06:00pm 14.3 5.4 2.9 46 5.5 NW 39 52 21 28 1016.2 1014.9 0.0
22/05:30pm 14.5 6.1 1.8 42 6.0 WNW 35 50 19 27 1016.4 1015.2 0.0
22/05:00pm 14.6 6.7 4.6 51 5.0 NW 35 54 19 29 1016.6 1015.4 0.0
22/04:32pm 15.1 7.7 5.0 51 5.1 NW 33 52 18 28 1016.4 1015.2 0.0
22/04:30pm 15.1 7.7 5.0 51 5.1 NW 33 46 18 25 1016.5 1015.3 0.0
22/04:00pm 15.2 7.3 4.3 48 5.5 NW 35 52 19 28 1016.7 1015.5 0.0
22/03:32pm 14.9 7.0 4.6 50 5.2 WNW 35 54 19 29 1016.6 1015.4 0.0
22/03:30pm 14.8 6.5 4.2 49 5.3 WNW 37 54 20 29 1016.7 1015.5 0.0
22/03:00pm 15.7 7.4 4.4 47 5.7 WNW 37 56 20 30 1016.8 1015.6 0.0
22/02:30pm 15.0 7.3 3.5 46 5.7 NW 33 52 18 28 1016.7 1015.5 0.0
22/02:10pm 15.9 7.8 3.0 42 6.3 NW 35 54 19 29 1016.6 1015.4 0.0
22/02:00pm 15.8 7.4 1.5 38 6.8 WNW 35 52 19 28 1016.5 1015.3 0.0
22/01:30pm 15.6 7.7 2.4 41 6.4 WNW 33 48 18 26 1016.6 1015.4 0.0
22/01:00pm 16.6 8.6 0.7 34 7.5 WNW 32 50 17 27 1016.5 1015.3 0.0
22/12:33pm 17.3 9.6 2.5 37 7.3 WNW 32 50 17 27 1016.2 1014.9 0.0
22/12:30pm 16.7 8.2 1.2 35 7.4 WNW 35 50 19 27 1016.3 1015.0 0.0
22/12:00pm 15.9 6.5 0.1 34 7.3 NW 39 50 21 27 1016.6 1015.4 0.0
22/11:31am 15.9 7.9 -2.6 28 8.1 NW 30 48 16 26 1016.4 1015.2 0.0
22/11:30am 15.9 7.4 -3.1 27 8.2 NW 32 48 17 26 1016.4 1015.2 0.0
22/11:17am 16.3 8.3 -2.2 28 8.2 NW 30 48 16 26 1016.3 1015.0 0.0
22/11:00am 15.6 7.2 -2.8 28 8.0 NW 32 48 17 26 1016.5 1015.3 0.0
22/10:30am 14.1 5.5 -2.8 31 7.2 NW 33 46 18 25 1016.6 1015.4 0.0
22/10:00am 13.5 4.7 1.2 43 5.7 NW 37 59 20 32 1016.8 1015.6 0.0
22/09:53am 13.2 4.6 0.3 41 5.9 NW 35 54 19 29 1017.0 1015.7 0.0
22/09:30am 12.9 4.2 1.9 47 5.2 NW 37 50 20 27 1016.8 1015.6 0.0
22/09:17am 12.9 4.3 2.7 50 4.9 NW 37 56 20 30 1017.0 1015.7 0.0
22/09:00am 11.5 1.9 0.9 48 4.8 NNW 41 57 22 31 1017.0 1015.7 0.0
22/08:30am 11.1 0.2 1.4 51 4.4 NNW 48 67 26 36 1016.7 1015.5 0.0
22/08:00am 10.4 -0.5 1.2 53 4.2 NNW 48 61 26 33 1016.6 1015.4 0.0
22/07:30am 10.1 -1.7 0.4 51 4.3 NNW 52 65 28 35 1016.4 1015.2 0.0
22/07:00am 9.7 -1.6 0.9 54 3.9 NNW 50 61 27 33 1016.0 1014.8 0.0
22/06:30am 9.5 -2.4 -0.4 50 4.3 NNW 52 61 28 33 1015.6 1014.3 0.0
22/06:00am 9.1 -2.6 1.3 58 3.5 NNW 52 61 28 33 1015.5 1014.2 0.0
22/05:30am 8.7 -2.3 0.7 57 3.5 NNW 48 56 26 30 1015.0 1013.7 0.0
22/05:00am 8.7 -2.9 1.8 62 3.1 NNW 52 59 28 32 1014.9 1013.6 0.0
22/04:30am 8.8 -3.1 2.4 64 2.9 NNW 54 63 29 34 1014.8 1013.5 0.0
22/04:00am 8.5 -3.0 2.5 66 2.7 NNW 52 61 28 33 1015.2 1014.0 0.0
22/03:30am 8.6 -1.8 2.2 64 2.9 NNW 46 56 25 30 1015.5 1014.2 0.0
22/03:00am 8.7 -1.1 2.5 65 2.8 NNW 43 52 23 28 1015.6 1014.3 0.0
22/02:30am 8.7 -0.7 2.3 64 2.9 NNW 41 48 22 26 1015.9 1014.7 0.0
22/02:00am 8.7 -0.3 2.5 65 2.8 NNW 39 48 21 26 1016.2 1014.9 0.0
22/01:30am 8.8 0.2 2.4 64 2.9 NNW 37 46 20 25 1016.3 1015.0 0.0
22/01:00am 8.4 0.6 2.8 68 2.6 NNW 33 41 18 22 1016.6 1015.4 0.0
22/12:30am 8.5 1.8 3.8 72 2.2 NW 28 33 15 18 1017.0 1015.7 0.0
22/12:00am 7.9 2.1 4.3 78 1.7 NW 24 32 13 17 1017.2 1016.0 0.0
 
Date/Time
EDT
Tmp

°C
App
Tmp
°C
Dew
Point
°C
Rel
Hum
%
Delta-T

°C
Wind Press
QNH
hPa
Press
MSL
hPa
Rain
since
9 am
mm
Dir
 
Spd
km/h
Gust
km/h
Spd
kts
Gust
kts
21/11:30pm 8.1 2.4 4.7 79 1.6 NW 24 32 13 17 1017.2 1016.0 0.0
21/11:00pm 8.4 3.4 4.4 76 1.9 NW 20 26 11 14 1017.2 1016.0 0.0
21/10:30pm 8.6 3.1 4.0 73 2.2 NW 22 30 12 16 1017.1 1015.9 0.0
21/10:00pm 8.9 4.0 3.9 71 2.4 NW 19 26 10 14 1016.8 1015.6 0.0
21/09:30pm 8.8 4.9 3.4 69 2.5 NW 13 26 7 14 1016.4 1015.2 0.0
21/09:00pm 9.5 3.4 3.0 64 3.0 NW 24 37 13 20 1015.9 1014.7 0.0
21/08:30pm 9.9 2.0 2.3 59 3.5 NW 33 48 18 26 1015.2 1014.0 0.0
21/08:11pm 10.2 1.5 2.1 57 3.7 NW 37 56 20 30 1014.9 1013.6 0.0
21/08:00pm 10.4 1.1 2.7 59 3.6 NW 41 57 22 31 1014.8 1013.5 0.0
21/07:30pm 10.7 2.2 3.3 60 3.5 NW 37 56 20 30 1014.4 1013.2 0.0
21/07:00pm 11.4 2.4 2.7 55 4.1 NW 39 57 21 31 1013.9 1012.6 0.0
21/06:43pm 11.9 1.4 3.4 56 4.1 NNW 48 67 26 36 1013.6 1012.3 0.0
21/06:30pm 12.0 1.7 2.7 53 4.4 NW 46 61 25 33 1013.4 1012.1 0.0
21/06:00pm 12.5 2.2 4.5 58 4.0 NW 48 70 26 38 1012.8 1011.5 0.0
21/05:30pm 12.9 2.3 5.3 60 3.8 NW 50 70 27 38 1012.5 1011.2 0.0
21/05:00pm 13.1 2.6 5.5 60 3.9 NW 50 69 27 37 1012.5 1011.2 0.0
21/04:39pm 12.9 1.9 4.8 58 4.0 NW 52 70 28 38 1012.5 1011.2 0.0
21/04:30pm 12.9 1.3 5.6 61 3.7 NW 56 70 30 38 1012.5 1011.2 0.0

Latest Capital City Observations: Canberra | Sydney | Melbourne | Brisbane | Adelaide | Perth | Hobart | Darwin

Other Formats:

Comma delimited format used in spreadsheet applications
http://www.bom.gov.au/fwo/IDN60903/IDN60903.95909.axf

JavaScript Object Notation format (JSON) in row-major order
http://www.bom.gov.au/fwo/IDN60903/IDN60903.95909.json